Terminal Aerodrome Forecast
Issued by NWS

Home | Current Version | Previous Version | Text Only | Print | Product List | Glossary On
Versions: 1 2 3 4 5 6 7 8 9 10 11 12 13 14 15 16 17
000
FTUS43 KUNR 191120
TAFGCC
TAF
KGCC 191120Z 1912/2012 01012KT P6SM BKN025 OVC100
      TEMPO 1912/1916 3SM -SN
     FM191600 03010KT 2SM -SN BKN025 OVC040
     FM200000 VRB05KT P6SM -SN BKN040 OVC080=

USA.gov is the U.S. government's official web portal to all federal, state and local government web resources and services.